createdAt,value
2023-04-18T00:01:10.969Z,7.67
2023-04-18T00:03:50.554Z,7.66
2023-04-18T00:06:31.484Z,7.66
2023-04-18T00:09:11.065Z,7.66
2023-04-18T00:11:50.509Z,7.64
2023-04-18T00:14:35.380Z,7.62
2023-04-18T00:17:15.689Z,7.60
2023-04-18T00:19:54.993Z,7.59
2023-04-18T00:22:34.904Z,7.60
2023-04-18T00:25:16.162Z,7.63
2023-04-18T00:27:55.429Z,7.65
2023-04-18T00:30:39.841Z,7.67
2023-04-18T00:33:19.294Z,7.69
2023-04-18T00:35:58.645Z,7.71
2023-04-18T00:38:38.039Z,7.72
2023-04-18T00:41:17.713Z,7.72
2023-04-18T00:43:57.049Z,7.72
2023-04-18T00:46:41.583Z,7.74
2023-04-18T00:49:21.443Z,7.75
2023-04-18T00:52:01.959Z,7.76
2023-04-18T00:54:41.564Z,7.76
2023-04-18T00:57:21.063Z,7.77
2023-04-18T01:00:00.795Z,7.77
2023-04-18T01:02:48.372Z,7.76
2023-04-18T01:05:28.167Z,7.75
2023-04-18T01:08:07.703Z,7.74
2023-04-18T01:10:47.099Z,7.73
2023-04-18T01:13:28.034Z,7.73
2023-04-18T01:16:07.354Z,7.72
2023-04-18T01:18:51.888Z,7.71
2023-04-18T01:21:32.359Z,7.70
2023-04-18T01:24:22.911Z,7.69
2023-04-18T01:27:04.172Z,7.67
2023-04-18T01:29:43.463Z,7.65
2023-04-18T01:32:23.473Z,7.62
2023-04-18T01:35:02.844Z,7.59
2023-04-18T01:37:42.125Z,7.55
2023-04-18T01:40:26.743Z,7.51
2023-04-18T01:43:06.057Z,7.47
2023-04-18T01:45:45.450Z,7.44
2023-04-18T01:48:24.713Z,7.41
2023-04-18T01:51:04.029Z,7.39
2023-04-18T01:53:43.399Z,7.36
2023-04-18T01:56:27.779Z,7.34
2023-04-18T01:59:07.145Z,7.30
2023-04-18T02:01:46.475Z,7.29
2023-04-18T02:04:25.781Z,7.28
2023-04-18T02:07:05.084Z,7.28
2023-04-18T02:09:44.462Z,7.28
2023-04-18T02:12:28.857Z,7.29
2023-04-18T02:15:08.165Z,7.29
2023-04-18T02:17:47.603Z,7.29
2023-04-18T02:20:27.458Z,7.29
2023-04-18T02:23:06.830Z,7.29
2023-04-18T02:25:46.207Z,7.28
2023-04-18T02:28:30.577Z,7.27
2023-04-18T02:31:15.611Z,7.25
2023-04-18T02:33:54.944Z,7.24
2023-04-18T02:36:34.236Z,7.24
2023-04-18T02:39:13.563Z,7.24
2023-04-18T02:41:52.905Z,7.23
2023-04-18T02:44:37.305Z,7.22
2023-04-18T02:47:16.760Z,7.20
2023-04-18T02:49:56.068Z,7.18
2023-04-18T02:52:35.509Z,7.18
2023-04-18T02:55:15.540Z,7.17
2023-04-18T02:57:54.948Z,7.16
2023-04-18T03:00:39.356Z,7.15
2023-04-18T03:03:18.930Z,7.15
2023-04-18T03:05:58.193Z,7.15
2023-04-18T03:08:37.507Z,7.15
2023-04-18T03:11:16.959Z,7.15
2023-04-18T03:13:56.260Z,7.15
2023-04-18T03:16:40.781Z,7.15
2023-04-18T03:19:20.077Z,7.14
2023-04-18T03:21:59.350Z,7.13
2023-04-18T03:24:38.646Z,7.12
2023-04-18T03:27:18.261Z,7.12
2023-04-18T03:29:57.543Z,7.13
2023-04-18T03:32:43.128Z,7.13
2023-04-18T03:35:22.755Z,7.15
2023-04-18T03:38:02.033Z,7.18
2023-04-18T03:40:41.431Z,7.20
2023-04-18T03:43:20.725Z,7.23
2023-04-18T03:46:00.262Z,7.26
2023-04-18T03:48:44.612Z,7.31
2023-04-18T03:51:24.333Z,7.35
2023-04-18T03:54:03.570Z,7.40
2023-04-18T03:56:43.315Z,7.44
2023-04-18T03:59:22.766Z,7.48
2023-04-18T04:02:02.230Z,7.53
2023-04-18T04:04:46.678Z,7.57
2023-04-18T04:07:26.069Z,7.61
2023-04-18T04:10:05.508Z,7.66
2023-04-18T04:12:44.785Z,7.70
2023-04-18T04:15:24.422Z,7.72
2023-04-18T04:18:03.790Z,7.73
2023-04-18T04:20:48.160Z,7.74
2023-04-18T04:23:28.169Z,7.76
2023-04-18T04:26:09.422Z,7.78
2023-04-18T04:28:49.760Z,7.79
2023-04-18T04:31:29.948Z,7.81
2023-04-18T04:34:10.078Z,7.82
2023-04-18T04:36:55.218Z,7.85
2023-04-18T04:39:34.576Z,7.89
2023-04-18T04:42:14.940Z,7.95
2023-04-18T04:44:54.827Z,8.02
2023-04-18T04:47:34.329Z,8.07
2023-04-18T04:50:16.750Z,8.11
2023-04-18T04:53:01.064Z,8.15
2023-04-18T04:55:42.118Z,8.19
2023-04-18T04:58:21.613Z,8.21
2023-04-18T05:01:00.996Z,8.23
2023-04-18T05:03:40.749Z,8.26
2023-04-18T05:06:23.198Z,8.29
2023-04-18T05:09:07.544Z,8.31
2023-04-18T05:11:46.859Z,8.33
2023-04-18T05:14:26.695Z,8.35
2023-04-18T05:17:06.219Z,8.37
2023-04-18T05:19:47.247Z,8.39
2023-04-18T05:22:26.686Z,8.41
2023-04-18T05:25:11.825Z,8.44
2023-04-18T05:27:51.251Z,8.46
2023-04-18T05:30:30.546Z,8.49
2023-04-18T05:33:09.881Z,8.52
2023-04-18T05:35:49.186Z,8.55
2023-04-18T05:38:32.005Z,8.57
2023-04-18T05:41:16.310Z,8.59
2023-04-18T05:44:04.962Z,8.62
2023-04-18T05:46:44.903Z,8.65
2023-04-18T05:49:24.756Z,8.67
2023-04-18T05:52:04.022Z,8.71
2023-04-18T05:54:43.429Z,8.73
2023-04-18T05:57:27.828Z,8.77
2023-04-18T06:00:10.984Z,8.79
2023-04-18T06:02:50.846Z,8.80
2023-04-18T06:05:30.634Z,8.83
2023-04-18T06:08:10.083Z,8.86
2023-04-18T06:10:49.534Z,8.89
2023-04-18T06:13:33.888Z,8.91
2023-04-18T06:16:14.123Z,8.93
2023-04-18T06:18:53.393Z,8.94
2023-04-18T06:21:32.779Z,8.96
2023-04-18T06:24:12.518Z,8.97
2023-04-18T06:26:52.106Z,9.00
2023-04-18T06:29:37.515Z,9.02
2023-04-18T06:32:17.492Z,9.05
2023-04-18T06:34:56.805Z,9.08
2023-04-18T06:37:36.637Z,9.11
2023-04-18T06:40:19.119Z,9.14
2023-04-18T06:42:58.611Z,9.18
2023-04-18T06:45:43.648Z,9.22
2023-04-18T06:48:23.119Z,9.27
2023-04-18T06:51:02.594Z,9.30
2023-04-18T06:53:41.957Z,9.34
2023-04-18T06:56:21.707Z,9.38
2023-04-18T06:59:01.221Z,9.41
2023-04-18T07:01:47.886Z,9.44
2023-04-18T07:04:27.857Z,9.46
2023-04-18T07:07:07.872Z,9.49
2023-04-18T07:09:47.212Z,9.51
2023-04-18T07:12:26.903Z,9.53
2023-04-18T07:15:06.197Z,9.54
2023-04-18T07:17:50.634Z,9.55
2023-04-18T07:20:30.132Z,9.57
2023-04-18T07:23:11.556Z,9.60
2023-04-18T07:25:50.868Z,9.64
2023-04-18T07:28:30.202Z,9.68
2023-04-18T07:31:12.694Z,9.71
2023-04-18T07:33:57.085Z,9.71
2023-04-18T07:36:36.407Z,9.73
2023-04-18T07:39:16.055Z,9.76
2023-04-18T07:41:55.388Z,9.81
2023-04-18T07:47:22.683Z,9.91
2023-04-18T07:50:07.165Z,9.95
2023-04-18T07:52:48.872Z,9.98
2023-04-18T07:55:28.395Z,10.04
2023-04-18T07:58:07.753Z,10.13
2023-04-18T08:00:47.541Z,10.27
2023-04-18T08:03:28.774Z,10.41
2023-04-18T08:06:13.964Z,10.53
2023-04-18T08:08:53.651Z,10.63
2023-04-18T08:11:33.050Z,10.73
2023-04-18T08:14:12.371Z,10.79
2023-04-18T08:16:51.659Z,10.83
2023-04-18T08:19:30.946Z,10.86
2023-04-18T08:22:19.705Z,10.90
2023-04-18T08:25:05.116Z,10.93
2023-04-18T08:27:44.897Z,10.94
2023-04-18T08:30:24.223Z,10.95
2023-04-18T08:33:03.638Z,10.95
2023-04-18T08:35:43.105Z,10.93
2023-04-18T08:38:27.515Z,10.94
2023-04-18T08:41:06.850Z,10.96
2023-04-18T08:43:46.301Z,10.98
2023-04-18T08:46:25.671Z,10.98
2023-04-18T08:49:05.935Z,11.03
2023-04-18T08:51:48.367Z,11.05
2023-04-18T08:54:34.712Z,11.11
2023-04-18T08:57:17.623Z,11.18
2023-04-18T08:59:57.714Z,11.25
2023-04-18T09:02:45.837Z,11.32
2023-04-18T09:05:27.003Z,11.41
2023-04-18T09:08:06.427Z,11.51
2023-04-18T09:10:51.624Z,11.59
2023-04-18T09:13:48.711Z,11.68
2023-04-18T09:16:28.696Z,11.77
2023-04-18T09:19:19.405Z,11.82
2023-04-18T09:22:06.037Z,11.85
2023-04-18T09:24:45.834Z,11.89
2023-04-18T09:27:31.644Z,11.94
2023-04-18T09:30:11.668Z,12.03
2023-04-18T09:32:51.889Z,12.19
2023-04-18T09:35:32.904Z,12.34
2023-04-18T09:38:13.036Z,12.49
2023-04-18T09:40:52.345Z,12.60
2023-04-18T09:43:36.785Z,12.71
2023-04-18T09:46:18.700Z,12.83
2023-04-18T09:48:58.100Z,12.92
2023-04-18T09:51:39.927Z,12.97
2023-04-18T09:54:23.057Z,13.02
2023-04-18T09:57:04.034Z,13.06
2023-04-18T09:59:55.321Z,13.10
2023-04-18T10:02:40.347Z,13.22
2023-04-18T10:05:21.680Z,13.34
2023-04-18T10:08:02.276Z,13.44
2023-04-18T10:10:41.874Z,13.52
2023-04-18T10:13:21.640Z,13.56
2023-04-18T10:16:06.424Z,13.62
2023-04-18T10:18:45.794Z,13.66
2023-04-18T10:21:25.088Z,13.71
2023-04-18T10:24:04.323Z,13.79
2023-04-18T10:26:54.142Z,13.87
2023-04-18T10:29:56.981Z,13.94
2023-04-18T10:32:41.421Z,14.02
2023-04-18T10:35:20.746Z,14.05
2023-04-18T10:38:06.481Z,14.03
2023-04-18T10:40:45.758Z,14.02
2023-04-18T10:43:25.114Z,14.01
2023-04-18T10:46:30.905Z,14.02
2023-04-18T10:49:28.388Z,14.04
2023-04-18T10:54:59.185Z,14.19
2023-04-18T10:57:48.455Z,14.28
2023-04-18T11:00:31.015Z,14.39
2023-04-18T11:03:10.726Z,14.49
2023-04-18T11:05:55.544Z,14.55
2023-04-18T11:08:35.144Z,14.60
2023-04-18T11:11:14.422Z,14.64
2023-04-18T11:14:03.908Z,14.65
2023-04-18T11:16:43.574Z,14.66
2023-04-18T11:19:26.908Z,14.69
2023-04-18T11:22:12.923Z,14.71
2023-04-18T11:24:52.279Z,14.72
2023-04-18T11:27:33.146Z,14.71
2023-04-18T11:30:14.402Z,14.68
2023-04-18T11:32:53.795Z,14.64
2023-04-18T11:35:33.578Z,14.60
2023-04-18T11:38:19.885Z,14.57
2023-04-18T11:40:59.336Z,14.55
2023-04-18T11:43:38.710Z,14.56
2023-04-18T11:46:18.930Z,14.59
2023-04-18T11:48:58.254Z,14.71
2023-04-18T11:51:45.911Z,15.07
2023-04-18T11:54:49.433Z,15.54
2023-04-18T11:57:33.325Z,15.85
2023-04-18T12:00:15.749Z,15.95
2023-04-18T12:02:57.752Z,16.00
2023-04-18T12:05:38.898Z,15.93
2023-04-18T12:08:20.284Z,15.90
2023-04-18T12:11:04.691Z,15.95
2023-04-18T12:13:43.957Z,15.90
2023-04-18T12:16:23.301Z,15.80
2023-04-18T12:19:07.008Z,15.67
2023-04-18T12:22:04.311Z,15.54
2023-04-18T12:24:44.536Z,15.42
2023-04-18T12:27:28.912Z,15.34
2023-04-18T12:30:08.337Z,15.31
2023-04-18T12:32:47.678Z,15.29
2023-04-18T12:35:28.818Z,15.28
2023-04-18T12:38:09.950Z,15.32
2023-04-18T12:40:49.248Z,15.41
2023-04-18T12:43:33.647Z,15.49
2023-04-18T12:46:13.162Z,15.63
2023-04-18T12:48:52.432Z,15.65
2023-04-18T12:51:32.655Z,15.65
2023-04-18T12:54:12.295Z,15.63
2023-04-18T12:56:52.725Z,15.72
2023-04-18T12:59:37.130Z,16.26
2023-04-18T13:02:16.482Z,16.47
2023-04-18T13:04:55.951Z,16.73
2023-04-18T13:07:35.368Z,17.09
2023-04-18T13:10:15.971Z,17.16
2023-04-18T13:12:57.145Z,17.24
2023-04-18T13:15:41.482Z,17.25
2023-04-18T13:18:20.974Z,17.10
2023-04-18T13:21:00.264Z,17.11
2023-04-18T13:23:39.552Z,17.42
2023-04-18T13:26:18.870Z,18.34
2023-04-18T13:28:58.162Z,19.12
2023-04-18T13:31:42.494Z,19.28
2023-04-18T13:34:21.780Z,19.31
2023-04-18T13:37:01.100Z,19.42
2023-04-18T13:39:41.500Z,19.52
2023-04-18T13:42:20.770Z,19.65
2023-04-18T13:45:01.178Z,19.87
2023-04-18T13:47:45.699Z,19.86
2023-04-18T13:50:25.132Z,19.66
2023-04-18T13:53:04.396Z,19.15
2023-04-18T13:55:43.786Z,18.38
2023-04-18T13:58:23.520Z,18.03
2023-04-18T14:01:02.953Z,17.90
2023-04-18T14:03:48.331Z,17.81
2023-04-18T14:06:27.747Z,18.11
2023-04-18T14:09:07.785Z,18.46
2023-04-18T14:11:47.198Z,18.52
2023-04-18T14:14:27.035Z,18.57
2023-04-18T14:17:06.549Z,18.43
2023-04-18T14:19:52.540Z,18.27
2023-04-18T14:22:31.873Z,18.23
2023-04-18T14:25:11.766Z,18.08
2023-04-18T14:27:57.358Z,17.83
2023-04-18T14:30:36.947Z,17.88
2023-04-18T14:33:16.344Z,18.04
2023-04-18T14:36:00.709Z,17.95
2023-04-18T14:38:40.205Z,17.79
2023-04-18T14:44:40.792Z,20.16
2023-04-18T14:47:20.064Z,19.57
2023-04-18T14:49:59.481Z,19.38
2023-04-18T14:52:38.986Z,18.68
2023-04-18T14:55:18.388Z,18.19
2023-04-18T14:57:57.681Z,17.98
2023-04-18T15:00:42.121Z,17.95
2023-04-18T15:03:21.474Z,19.23
2023-04-18T15:06:00.856Z,19.78
2023-04-18T15:08:40.209Z,19.06
2023-04-18T15:11:19.534Z,18.56
2023-04-18T15:13:58.786Z,18.16
2023-04-18T15:16:43.179Z,17.84
2023-04-18T15:19:22.460Z,17.49
2023-04-18T15:22:01.778Z,17.24
2023-04-18T15:24:41.075Z,17.08
2023-04-18T15:27:20.369Z,16.96
2023-04-18T15:29:59.693Z,16.88
2023-04-18T15:32:44.095Z,16.80
2023-04-18T15:35:23.504Z,16.75
2023-04-18T15:38:02.986Z,16.71
2023-04-18T15:40:44.417Z,16.62
2023-04-18T15:43:23.754Z,16.56
2023-04-18T15:46:03.012Z,16.53
2023-04-18T15:48:47.406Z,16.46
2023-04-18T15:51:27.058Z,16.29
2023-04-18T15:54:06.379Z,16.12
2023-04-18T15:56:45.970Z,15.97
2023-04-18T15:59:25.282Z,15.86
2023-04-18T16:02:04.642Z,15.79
2023-04-18T16:04:49.270Z,15.75
2023-04-18T16:07:28.752Z,15.71
2023-04-18T16:10:09.885Z,15.63
2023-04-18T16:12:49.127Z,15.54
2023-04-18T16:15:28.812Z,15.43
2023-04-18T16:18:08.315Z,15.34
2023-04-18T16:20:53.429Z,15.28
2023-04-18T16:23:33.322Z,15.18
2023-04-18T16:26:13.418Z,15.10
2023-04-18T16:28:52.707Z,15.03
2023-04-18T16:31:32.148Z,14.96
2023-04-18T16:34:11.710Z,14.88
2023-04-18T16:36:56.166Z,14.86
2023-04-18T16:39:37.002Z,14.85
2023-04-18T16:42:16.314Z,14.81
2023-04-18T16:44:55.864Z,14.75
2023-04-18T16:47:35.396Z,14.67
2023-04-18T16:50:15.876Z,14.57
2023-04-18T16:53:00.255Z,14.47
2023-04-18T16:55:39.517Z,14.37
2023-04-18T16:58:18.816Z,14.29
2023-04-18T17:00:58.526Z,14.21
2023-04-18T17:03:38.586Z,14.14
2023-04-18T17:06:18.277Z,14.05
2023-04-18T17:09:04.527Z,13.95
2023-04-18T17:11:43.773Z,13.89
2023-04-18T17:14:23.503Z,13.83
2023-04-18T17:17:02.765Z,13.78
2023-04-18T17:19:42.130Z,13.74
2023-04-18T17:22:21.359Z,13.70
2023-04-18T17:25:05.691Z,13.67
2023-04-18T17:27:46.983Z,13.64
2023-04-18T17:30:26.373Z,13.59
2023-04-18T17:33:05.708Z,13.56
2023-04-18T17:35:48.339Z,13.52
2023-04-18T17:38:27.656Z,13.48
2023-04-18T17:41:12.548Z,13.47
2023-04-18T17:43:52.062Z,13.46
2023-04-18T17:46:31.435Z,13.45
2023-04-18T17:49:11.090Z,13.42
2023-04-18T17:51:50.381Z,13.37
2023-04-18T17:54:29.769Z,13.35
2023-04-18T17:57:14.087Z,13.31
2023-04-18T17:59:53.327Z,13.30
2023-04-18T18:02:32.776Z,13.29
2023-04-18T18:05:12.444Z,13.27
2023-04-18T18:07:54.255Z,13.25
2023-04-18T18:10:33.967Z,13.22
2023-04-18T18:13:18.311Z,13.18
2023-04-18T18:15:59.222Z,13.14
2023-04-18T18:18:38.547Z,13.11
2023-04-18T18:21:17.791Z,13.09
2023-04-18T18:23:57.218Z,13.07
2023-04-18T18:26:37.236Z,13.07
2023-04-18T18:29:21.569Z,13.06
2023-04-18T18:32:00.839Z,13.03
2023-04-18T18:34:40.110Z,13.02
2023-04-18T18:37:19.347Z,13.00
2023-04-18T18:39:58.652Z,13.00
2023-04-18T18:42:38.046Z,12.99
2023-04-18T18:45:22.611Z,12.95
2023-04-18T18:48:01.997Z,12.93
2023-04-18T18:50:43.028Z,12.92
2023-04-18T18:53:22.915Z,12.90
2023-04-18T18:56:02.392Z,12.88
2023-04-18T18:58:42.229Z,12.84
2023-04-18T19:01:26.639Z,12.80
2023-04-18T19:04:06.389Z,12.78
2023-04-18T19:06:45.855Z,12.77
2023-04-18T19:09:25.250Z,12.76
2023-04-18T19:12:05.295Z,12.76
2023-04-18T19:14:44.644Z,12.75
2023-04-18T19:17:29.063Z,12.75
2023-04-18T19:20:08.344Z,12.75
2023-04-18T19:22:47.897Z,12.73
2023-04-18T19:25:27.211Z,12.71
2023-04-18T19:28:07.016Z,12.70
2023-04-18T19:30:47.578Z,12.70
2023-04-18T19:33:32.831Z,12.69
2023-04-18T19:36:12.926Z,12.69
2023-04-18T19:38:52.736Z,12.68
2023-04-18T19:41:32.343Z,12.65
2023-04-18T19:44:12.058Z,12.63
2023-04-18T19:46:51.289Z,12.61
2023-04-18T19:49:35.609Z,12.59
2023-04-18T19:52:14.891Z,12.58
2023-04-18T19:54:54.154Z,12.58
2023-04-18T19:57:34.054Z,12.57
2023-04-18T20:00:15.238Z,12.56
2023-04-18T20:02:55.644Z,12.53
2023-04-18T20:05:40.269Z,12.48
2023-04-18T20:08:19.546Z,12.44
2023-04-18T20:10:59.052Z,12.42
2023-04-18T20:13:38.618Z,12.39
2023-04-18T20:16:18.690Z,12.37
2023-04-18T20:18:57.942Z,12.33
2023-04-18T20:21:42.329Z,12.30
2023-04-18T20:24:22.228Z,12.28
2023-04-18T20:27:01.526Z,12.27
2023-04-18T20:29:40.814Z,12.28
2023-04-18T20:32:20.269Z,12.28
2023-04-18T20:34:59.791Z,12.27
2023-04-18T20:37:44.099Z,12.27
2023-04-18T20:40:23.405Z,12.27
2023-04-18T20:43:04.464Z,12.26
2023-04-18T20:45:43.894Z,12.25
2023-04-18T20:48:23.151Z,12.24
2023-04-18T20:51:02.419Z,12.25
2023-04-18T20:53:46.815Z,12.23
2023-04-18T20:56:26.099Z,12.22
2023-04-18T20:59:05.782Z,12.21
2023-04-18T21:01:45.037Z,12.20
2023-04-18T21:04:24.452Z,12.18
2023-04-18T21:07:03.806Z,12.15
2023-04-18T21:09:48.097Z,12.12
2023-04-18T21:12:27.391Z,12.08
2023-04-18T21:15:06.688Z,12.05
2023-04-18T21:17:45.977Z,12.01
2023-04-18T21:20:25.363Z,11.99
2023-04-18T21:23:04.622Z,12.00
2023-04-18T21:25:49.017Z,11.98
2023-04-18T21:28:28.283Z,11.96
2023-04-18T21:31:07.560Z,11.93
2023-04-18T21:33:46.875Z,11.91
2023-04-18T21:36:26.345Z,11.88
2023-04-18T21:39:07.758Z,11.84
2023-04-18T21:41:52.393Z,11.82
2023-04-18T21:44:31.635Z,11.76
2023-04-18T21:47:10.883Z,11.72
2023-04-18T21:49:50.107Z,11.70
2023-04-18T21:52:29.349Z,11.67
2023-04-18T21:55:08.630Z,11.64
2023-04-18T21:57:52.938Z,11.63
2023-04-18T22:00:32.366Z,11.62
2023-04-18T22:03:12.318Z,11.62
2023-04-18T22:05:53.729Z,11.61
2023-04-18T22:08:33.747Z,11.60
2023-04-18T22:11:14.741Z,11.60
2023-04-18T22:13:59.255Z,11.60
2023-04-18T22:16:39.226Z,11.60
2023-04-18T22:19:18.715Z,11.58
2023-04-18T22:21:58.046Z,11.56
2023-04-18T22:24:37.377Z,11.56
2023-04-18T22:27:16.586Z,11.56
2023-04-18T22:30:00.956Z,11.57
2023-04-18T22:32:40.333Z,11.59
2023-04-18T22:35:19.776Z,11.61
2023-04-18T22:37:59.219Z,11.61
2023-04-18T22:40:38.685Z,11.61
2023-04-18T22:43:23.615Z,11.62
2023-04-18T22:46:08.006Z,11.62
2023-04-18T22:48:47.468Z,11.61
2023-04-18T22:51:29.755Z,11.59
2023-04-18T22:54:09.123Z,11.58
2023-04-18T22:56:48.356Z,11.57
2023-04-18T22:59:27.834Z,11.56
2023-04-18T23:02:12.321Z,11.55
2023-04-18T23:04:51.923Z,11.54
2023-04-18T23:07:31.245Z,11.56
2023-04-18T23:10:12.894Z,11.56
2023-04-18T23:12:52.170Z,11.58
2023-04-18T23:15:31.797Z,11.58
2023-04-18T23:18:16.213Z,11.58
2023-04-18T23:20:55.466Z,11.58
2023-04-18T23:23:34.740Z,11.59
2023-04-18T23:26:20.259Z,11.59
2023-04-18T23:28:59.848Z,11.61
2023-04-18T23:31:39.171Z,11.62
2023-04-18T23:34:23.565Z,11.63
2023-04-18T23:37:02.804Z,11.63
2023-04-18T23:39:42.180Z,11.65
2023-04-18T23:42:21.398Z,11.67
2023-04-18T23:45:00.897Z,11.68
2023-04-18T23:47:40.320Z,11.68
2023-04-18T23:50:24.946Z,11.69
2023-04-18T23:53:04.220Z,11.70
2023-04-18T23:55:43.481Z,11.70
2023-04-18T23:58:23.036Z,11.70
